Time;durP1;ratioP1;P1;durP2;ratioP2;P2;SDS_P1;SDS_P2;PMS_P1;PMS_P2;Temp;Humidity;BMP_temperature;BMP_pressure;BME280_temperature;BME280_humidity;BME280_pressure;Samples;Min_cycle;Max_cycle;Signal;HPM_P1;HPM_P2
2023/06/28 00:00:28;;;;;;;;;;;28.70;56.90;;;;;;5106347;27;43178;-83
2023/06/28 00:02:55;;;;;;;;;;;28.80;57.10;;;;;;5105776;27;44496;-83
2023/06/28 00:05:21;;;;;;;;;;;28.70;57.00;;;;;;5107172;27;42884;-83
2023/06/28 00:07:47;;;;;;;;;;;28.80;57.00;;;;;;5106537;27;43305;-84
2023/06/28 00:10:12;;;;;;;;;;;28.80;57.00;;;;;;5106632;27;43123;-84
2023/06/28 00:12:38;;;;;;;;;;;28.70;57.60;;;;;;5107388;27;43504;-83
2023/06/28 00:15:03;;;;;;;;;;;28.80;57.70;;;;;;5106888;27;43148;-84
2023/06/28 00:17:29;;;;;;;;;;;28.80;57.30;;;;;;5106619;27;43058;-82
2023/06/28 00:19:55;;;;;;;;;;;28.80;57.80;;;;;;5106761;27;42826;-82
2023/06/28 00:22:23;;;;;;;;;;;28.80;57.80;;;;;;5105996;27;43406;-84
2023/06/28 00:24:49;;;;;;;;;;;28.80;58.00;;;;;;5106948;27;42912;-84
2023/06/28 00:27:15;;;;;;;;;;;28.80;57.10;;;;;;5106745;27;43495;-84
2023/06/28 00:29:40;;;;;;;;;;;28.70;57.00;;;;;;5107065;27;43075;-84
2023/06/28 00:32:06;;;;;;;;;;;28.80;57.60;;;;;;5105269;27;43312;-82
2023/06/28 00:34:31;;;;;;;;;;;28.80;57.00;;;;;;5106114;27;42830;-82
2023/06/28 00:36:57;;;;;;;;;;;28.70;57.00;;;;;;5106451;27;43537;-82
2023/06/28 00:39:22;;;;;;;;;;;28.70;56.90;;;;;;5105641;27;42897;-82
2023/06/28 00:41:48;;;;;;;;;;;28.70;56.90;;;;;;5106564;27;43517;-82
2023/06/28 00:44:13;;;;;;;;;;;28.70;57.30;;;;;;5105722;27;42920;-82
2023/06/28 00:46:39;;;;;;;;;;;28.70;57.30;;;;;;5106171;27;42925;-85
2023/06/28 00:49:05;;;;;;;;;;;28.70;56.60;;;;;;5104846;27;43024;-84
2023/06/28 00:51:31;;;;;;;;;;;28.70;57.10;;;;;;5105621;27;43085;-83
2023/06/28 00:53:57;;;;;;;;;;;28.70;56.50;;;;;;5105705;27;42911;-84
2023/06/28 00:56:24;;;;;;;;;;;28.70;56.40;;;;;;5105374;27;44061;-82
2023/06/28 00:58:50;;;;;;;;;;;28.60;56.50;;;;;;5104358;27;43035;-82
2023/06/28 01:01:15;;;;;;;;;;;28.70;56.30;;;;;;5104948;27;43126;-82
2023/06/28 01:03:41;;;;;;;;;;;28.80;57.40;;;;;;5106156;27;43217;-83
2023/06/28 01:06:06;;;;;;;;;;;28.70;56.90;;;;;;5106080;27;42793;-83
2023/06/28 01:08:32;;;;;;;;;;;28.70;57.00;;;;;;5105154;27;43116;-84
2023/06/28 01:10:58;;;;;;;;;;;28.70;57.10;;;;;;5105955;27;42887;-82
2023/06/28 01:13:24;;;;;;;;;;;28.70;57.00;;;;;;5105719;27;42963;-84
2023/06/28 01:15:49;;;;;;;;;;;28.70;56.40;;;;;;5105094;27;43218;-82
2023/06/28 01:18:19;;;;;;;;;;;28.70;56.40;;;;;;5105478;27;42963;-82
2023/06/28 01:20:45;;;;;;;;;;;28.80;56.60;;;;;;5103875;27;44306;-83
2023/06/28 01:23:11;;;;;;;;;;;28.70;57.10;;;;;;5105098;27;43756;-83
2023/06/28 01:25:36;;;;;;;;;;;28.70;57.30;;;;;;5104858;27;43653;-84
2023/06/28 01:28:02;;;;;;;;;;;28.70;56.70;;;;;;5105639;27;42935;-84
2023/06/28 01:30:29;;;;;;;;;;;28.60;56.70;;;;;;5096344;27;42990;-84
2023/06/28 01:32:54;;;;;;;;;;;28.70;56.80;;;;;;5100125;27;42988;-82
2023/06/28 01:35:20;;;;;;;;;;;28.70;57.20;;;;;;5105117;27;42897;-84
2023/06/28 01:37:46;;;;;;;;;;;28.60;56.60;;;;;;5100341;27;43007;-83
2023/06/28 01:40:11;;;;;;;;;;;28.70;57.30;;;;;;5104003;27;44476;-83
2023/06/28 01:42:38;;;;;;;;;;;28.60;56.60;;;;;;5104463;27;42893;-83
2023/06/28 01:45:04;;;;;;;;;;;28.70;57.20;;;;;;5105326;27;43172;-82
2023/06/28 01:47:30;;;;;;;;;;;28.70;57.20;;;;;;5104221;27;42944;-83
2023/06/28 01:49:56;;;;;;;;;;;28.70;56.60;;;;;;5104677;27;43485;-82
2023/06/28 01:52:21;;;;;;;;;;;28.70;57.10;;;;;;5104392;27;43370;-84
2023/06/28 01:54:48;;;;;;;;;;;28.60;56.40;;;;;;5103356;27;64277;-83
2023/06/28 01:57:14;;;;;;;;;;;28.60;57.00;;;;;;5104838;27;43045;-82
2023/06/28 01:59:40;;;;;;;;;;;28.60;57.00;;;;;;5104120;27;43486;-83
2023/06/28 02:02:06;;;;;;;;;;;28.70;56.60;;;;;;5104206;27;42893;-82
2023/06/28 02:04:31;;;;;;;;;;;28.60;56.60;;;;;;5104753;27;43957;-85
2023/06/28 02:06:57;;;;;;;;;;;28.60;56.60;;;;;;5102455;27;43012;-84
2023/06/28 02:09:22;;;;;;;;;;;28.70;56.60;;;;;;5104620;27;43394;-84
2023/06/28 02:11:48;;;;;;;;;;;28.70;56.50;;;;;;5104728;27;43003;-83
2023/06/28 02:14:13;;;;;;;;;;;28.60;57.00;;;;;;5104007;27;43161;-85
2023/06/28 02:16:41;;;;;;;;;;;28.60;57.10;;;;;;5104924;27;43027;-85
2023/06/28 02:19:06;;;;;;;;;;;28.60;57.10;;;;;;5104606;27;42885;-84
2023/06/28 02:21:32;;;;;;;;;;;28.60;56.70;;;;;;5102699;27;43394;-85
2023/06/28 02:23:57;;;;;;;;;;;28.70;56.60;;;;;;5104851;27;44119;-83
2023/06/28 02:26:23;;;;;;;;;;;28.60;57.10;;;;;;5104565;27;42932;-81
2023/06/28 02:28:48;;;;;;;;;;;28.60;57.10;;;;;;5104357;27;43484;-81
2023/06/28 02:31:16;;;;;;;;;;;28.60;57.00;;;;;;5103930;27;43024;-81
2023/06/28 02:33:41;;;;;;;;;;;28.60;57.00;;;;;;5104826;27;43027;-81
2023/06/28 02:36:07;;;;;;;;;;;28.60;57.10;;;;;;5104568;27;42861;-81
2023/06/28 02:38:32;;;;;;;;;;;28.60;57.20;;;;;;5103497;27;43204;-84
2023/06/28 02:40:58;;;;;;;;;;;28.60;57.30;;;;;;5103822;27;42923;-82
2023/06/28 02:43:23;;;;;;;;;;;28.60;57.30;;;;;;5104427;27;42803;-82
2023/06/28 02:45:49;;;;;;;;;;;28.50;56.60;;;;;;5102271;27;42997;-81
2023/06/28 02:48:14;;;;;;;;;;;28.60;56.70;;;;;;5104022;27;43002;-81
2023/06/28 02:50:40;;;;;;;;;;;28.60;56.70;;;;;;5104284;27;43470;-81
2023/06/28 02:53:05;;;;;;;;;;;28.60;57.20;;;;;;5102750;27;43619;-82
2023/06/28 02:55:31;;;;;;;;;;;28.60;57.00;;;;;;5103990;27;43067;-81
2023/06/28 02:57:56;;;;;;;;;;;28.60;56.50;;;;;;5104277;27;42830;-84
2023/06/28 03:00:22;;;;;;;;;;;28.60;57.00;;;;;;5097807;27;43149;-83
2023/06/28 03:02:47;;;;;;;;;;;28.60;56.80;;;;;;5133781;27;43650;-81
2023/06/28 03:05:13;;;;;;;;;;;28.60;56.10;;;;;;5102924;27;43102;-81
2023/06/28 03:07:38;;;;;;;;;;;28.50;56.00;;;;;;5100789;27;43630;-81
2023/06/28 03:10:04;;;;;;;;;;;28.50;55.90;;;;;;5096773;27;42994;-84
2023/06/28 03:12:30;;;;;;;;;;;28.60;55.80;;;;;;5105477;27;42849;-81
2023/06/28 03:14:57;;;;;;;;;;;28.50;55.70;;;;;;4984358;27;43417;-82
2023/06/28 03:17:24;;;;;;;;;;;28.50;56.50;;;;;;4887740;27;43941;-82
2023/06/28 03:19:52;;;;;;;;;;;28.40;56.50;;;;;;4906781;27;43533;-83
2023/06/28 03:22:23;;;;;;;;;;;28.50;55.90;;;;;;4915362;27;44187;-83
2023/06/28 03:24:51;;;;;;;;;;;32.00;58.10;;;;;;4897952;27;43876;-82
2023/06/28 03:27:19;;;;;;;;;;;28.50;56.20;;;;;;4893577;27;44137;-82
2023/06/28 03:29:46;;;;;;;;;;;28.40;55.80;;;;;;4913270;27;43559;-82
2023/06/28 03:32:13;;;;;;;;;;;28.50;55.70;;;;;;4902192;22;43999;-83
2023/06/28 03:34:41;;;;;;;;;;;28.60;55.70;;;;;;4832440;28;43720;-83
2023/06/28 03:37:08;;;;;;;;;;;28.50;55.90;;;;;;4844395;28;43978;-83
2023/06/28 03:39:34;;;;;;;;;;;28.50;55.90;;;;;;4952108;28;43374;-81
2023/06/28 03:42:00;;;;;;;;;;;28.50;55.70;;;;;;5046647;28;43031;-79
2023/06/28 03:44:25;;;;;;;;;;;28.50;55.60;;;;;;5044490;28;43061;-78
2023/06/28 03:46:51;;;;;;;;;;;28.40;55.50;;;;;;5046363;28;43428;-78
2023/06/28 03:49:17;;;;;;;;;;;28.40;55.00;;;;;;5045511;28;43000;-79
2023/06/28 03:51:42;;;;;;;;;;;28.40;55.60;;;;;;5045890;28;45171;-78
2023/06/28 03:54:08;;;;;;;;;;;28.50;55.00;;;;;;5044373;28;43067;-78
2023/06/28 03:56:33;;;;;;;;;;;28.40;54.80;;;;;;5045472;28;43086;-78
2023/06/28 03:58:59;;;;;;;;;;;28.40;55.00;;;;;;5037950;28;43008;-81
2023/06/28 04:01:24;;;;;;;;;;;28.40;55.00;;;;;;5041900;28;44072;-80
2023/06/28 04:03:50;;;;;;;;;;;28.40;55.00;;;;;;5046362;28;44017;-82
2023/06/28 04:06:15;;;;;;;;;;;28.40;55.00;;;;;;5046085;28;43245;-80
2023/06/28 04:08:41;;;;;;;;;;;28.40;55.10;;;;;;5046400;28;43082;-80
2023/06/28 04:11:07;;;;;;;;;;;28.40;55.10;;;;;;5046313;28;42853;-80
2023/06/28 04:13:32;;;;;;;;;;;28.40;55.10;;;;;;5045237;28;43074;-79
2023/06/28 04:15:58;;;;;;;;;;;28.30;55.10;;;;;;5038990;28;43781;-76
2023/06/28 04:18:23;;;;;;;;;;;28.40;55.60;;;;;;5031659;28;42957;-76
2023/06/28 04:20:49;;;;;;;;;;;28.40;55.60;;;;;;5044520;28;42970;-77
2023/06/28 04:23:14;;;;;;;;;;;28.40;55.60;;;;;;5045004;28;43345;-78
2023/06/28 04:25:40;;;;;;;;;;;28.40;55.10;;;;;;5046533;28;43899;-79
2023/06/28 04:28:06;;;;;;;;;;;28.40;55.00;;;;;;5045709;28;42879;-77
2023/06/28 04:30:32;;;;;;;;;;;28.40;55.40;;;;;;5041721;28;43707;-79
2023/06/28 04:32:57;;;;;;;;;;;28.40;55.00;;;;;;5045135;28;43278;-78
2023/06/28 04:35:23;;;;;;;;;;;28.40;54.90;;;;;;5038295;28;43540;-77
2023/06/28 04:37:50;;;;;;;;;;;28.40;55.10;;;;;;5042196;28;42917;-78
2023/06/28 04:40:16;;;;;;;;;;;28.40;55.30;;;;;;5045218;28;42938;-79
2023/06/28 04:42:41;;;;;;;;;;;28.40;55.30;;;;;;5020760;28;43060;-78
2023/06/28 04:45:09;;;;;;;;;;;28.40;55.30;;;;;;5044323;28;43697;-76
2023/06/28 04:47:35;;;;;;;;;;;28.40;55.90;;;;;;5045433;28;43016;-79
2023/06/28 04:50:01;;;;;;;;;;;28.40;55.40;;;;;;5045758;28;42941;-79
2023/06/28 04:52:26;;;;;;;;;;;28.40;56.00;;;;;;5037137;28;43078;-79
2023/06/28 04:54:52;;;;;;;;;;;28.40;56.00;;;;;;5045516;28;43470;-79
2023/06/28 04:57:20;;;;;;;;;;;28.40;55.60;;;;;;5044228;28;42755;-79
2023/06/28 04:59:46;;;;;;;;;;;28.40;55.70;;;;;;5045359;28;42936;-79
2023/06/28 05:02:11;;;;;;;;;;;28.30;55.70;;;;;;5044975;28;43026;-80
2023/06/28 05:04:37;;;;;;;;;;;27.90;55.40;;;;;;5045147;28;42865;-78
2023/06/28 05:07:04;;;;;;;;;;;28.40;56.30;;;;;;5041459;28;43061;-79
2023/06/28 05:09:30;;;;;;;;;;;28.30;56.20;;;;;;5045389;28;42985;-79
2023/06/28 05:11:56;;;;;;;;;;;28.30;56.20;;;;;;5044688;28;42998;-78
2023/06/28 05:14:21;;;;;;;;;;;28.30;56.10;;;;;;5044771;28;43191;-79
2023/06/28 05:16:47;;;;;;;;;;;28.30;55.50;;;;;;5042217;28;43083;-78
2023/06/28 05:19:13;;;;;;;;;;;28.30;55.90;;;;;;5014795;28;44455;-79
2023/06/28 05:21:38;;;;;;;;;;;28.30;55.90;;;;;;5034167;28;43000;-80
2023/06/28 05:24:04;;;;;;;;;;;28.60;55.60;;;;;;5035027;28;43447;-81
2023/06/28 05:26:29;;;;;;;;;;;28.30;55.90;;;;;;5040367;28;42925;-81
2023/06/28 05:28:55;;;;;;;;;;;28.30;55.40;;;;;;5044855;28;42855;-81
2023/06/28 05:31:21;;;;;;;;;;;28.30;55.90;;;;;;5045238;28;43164;-78
2023/06/28 05:33:46;;;;;;;;;;;28.30;55.90;;;;;;5044626;28;43495;-80
2023/06/28 05:36:12;;;;;;;;;;;28.30;55.90;;;;;;5045337;28;42817;-88
2023/06/28 05:38:37;;;;;;;;;;;28.30;55.90;;;;;;5045311;28;43018;-79
2023/06/28 05:41:12;;;;;;;;;;;28.30;55.30;;;;;;5036909;28;43031;-81
2023/06/28 05:43:38;;;;;;;;;;;28.30;55.80;;;;;;5041162;28;43913;-83
2023/06/28 05:46:03;;;;;;;;;;;28.40;55.50;;;;;;5044703;28;43087;-81
2023/06/28 05:48:30;;;;;;;;;;;28.30;55.40;;;;;;5044980;28;43674;-81
2023/06/28 05:50:56;;;;;;;;;;;28.30;55.90;;;;;;5044979;28;43083;-82
2023/06/28 05:53:21;;;;;;;;;;;28.30;55.40;;;;;;5026487;28;43043;-80
2023/06/28 05:55:47;;;;;;;;;;;28.30;56.00;;;;;;5026585;28;42906;-81
2023/06/28 05:58:12;;;;;;;;;;;28.30;55.40;;;;;;5044807;28;43048;-79
2023/06/28 06:00:38;;;;;;;;;;;28.30;55.90;;;;;;5043947;28;42974;-81
2023/06/28 06:03:03;;;;;;;;;;;28.40;55.90;;;;;;5044078;28;43812;-79
2023/06/28 06:05:29;;;;;;;;;;;28.30;55.30;;;;;;5042887;28;43083;-82
2023/06/28 06:07:54;;;;;;;;;;;28.40;55.30;;;;;;5044458;28;42984;-81
2023/06/28 06:10:20;;;;;;;;;;;28.30;55.20;;;;;;5044736;28;43023;-81
2023/06/28 06:12:45;;;;;;;;;;;28.40;55.80;;;;;;5044764;28;43103;-81
2023/06/28 06:15:11;;;;;;;;;;;28.40;55.80;;;;;;5044099;28;42968;-80
2023/06/28 06:17:36;;;;;;;;;;;28.40;55.60;;;;;;5044212;28;43528;-79
2023/06/28 06:20:04;;;;;;;;;;;28.40;54.90;;;;;;5044074;28;44068;-81
2023/06/28 06:22:30;;;;;;;;;;;28.40;54.80;;;;;;5044468;28;42936;-82
2023/06/28 06:24:55;;;;;;;;;;;28.40;55.40;;;;;;5044508;28;43163;-80
2023/06/28 06:27:21;;;;;;;;;;;28.40;55.30;;;;;;5044810;28;43541;-77
2023/06/28 06:29:47;;;;;;;;;;;28.40;54.60;;;;;;5025889;28;42929;-81
2023/06/28 06:32:13;;;;;;;;;;;28.40;55.10;;;;;;5042869;28;43472;-82
2023/06/28 06:34:39;;;;;;;;;;;28.30;54.90;;;;;;5038073;28;43296;-78
2023/06/28 06:37:05;;;;;;;;;;;28.40;55.00;;;;;;5039416;28;43025;-78
2023/06/28 06:39:30;;;;;;;;;;;28.40;55.10;;;;;;5034719;28;43124;-79
2023/06/28 06:41:56;;;;;;;;;;;28.40;55.00;;;;;;5039144;28;42952;-82
2023/06/28 06:44:21;;;;;;;;;;;28.40;54.40;;;;;;5043171;28;42913;-81
2023/06/28 06:46:47;;;;;;;;;;;28.40;54.40;;;;;;5043007;28;43002;-80
2023/06/28 06:49:12;;;;;;;;;;;28.40;54.80;;;;;;5042510;28;43097;-81
2023/06/28 06:51:38;;;;;;;;;;;28.40;54.20;;;;;;5043400;28;43443;-78
2023/06/28 06:54:03;;;;;;;;;;;28.40;54.10;;;;;;5048419;28;43015;-81
2023/06/28 06:56:31;;;;;;;;;;;28.40;54.60;;;;;;5049126;28;43508;-79
2023/06/28 06:58:56;;;;;;;;;;;28.40;54.20;;;;;;5049090;28;43027;-82
2023/06/28 07:01:22;;;;;;;;;;;28.40;54.20;;;;;;5049028;28;42969;-79
2023/06/28 07:03:47;;;;;;;;;;;28.40;54.70;;;;;;5048662;28;42913;-81
2023/06/28 07:06:13;;;;;;;;;;;28.40;54.70;;;;;;5041861;28;43272;-81
2023/06/28 07:08:38;;;;;;;;;;;28.40;55.20;;;;;;5048615;28;43248;-79
2023/06/28 07:11:04;;;;;;;;;;;28.40;54.20;;;;;;5049989;28;43361;-79
2023/06/28 07:13:29;;;;;;;;;;;28.40;54.10;;;;;;5044359;28;42955;-81
2023/06/28 07:15:55;;;;;;;;;;;28.40;54.60;;;;;;5035869;28;44369;-82
2023/06/28 07:18:20;;;;;;;;;;;28.40;54.00;;;;;;5028559;28;42919;-79
2023/06/28 07:20:47;;;;;;;;;;;28.40;53.90;;;;;;5049654;28;42893;-82
2023/06/28 07:23:13;;;;;;;;;;;28.40;53.60;;;;;;5032111;28;42912;-83
2023/06/28 07:25:39;;;;;;;;;;;28.40;53.40;;;;;;5031842;28;44762;-82
2023/06/28 07:28:04;;;;;;;;;;;28.40;53.40;;;;;;5050148;28;43110;-87
2023/06/28 07:30:50;;;;;;;;;;;28.30;53.20;;;;;;5049846;28;43600;-88
2023/06/28 07:33:18;;;;;;;;;;;28.30;53.20;;;;;;5031407;28;43216;-87
2023/06/28 07:35:52;;;;;;;;;;;28.30;53.20;;;;;;5050080;28;43667;-90
2023/06/28 07:38:18;;;;;;;;;;;28.30;53.20;;;;;;5031672;28;42866;-84
2023/06/28 07:40:45;;;;;;;;;;;28.30;53.70;;;;;;5028510;28;43412;-84
2023/06/28 07:43:11;;;;;;;;;;;28.30;53.10;;;;;;5037280;28;42938;-84
2023/06/28 07:45:37;;;;;;;;;;;28.20;51.50;;;;;;5049020;28;42956;-84
2023/06/28 07:48:02;;;;;;;;;;;28.10;50.90;;;;;;5049381;28;42909;-85
2023/06/28 07:50:28;;;;;;;;;;;28.10;51.20;;;;;;5048593;28;43973;-84
2023/06/28 07:52:53;;;;;;;;;;;28.10;51.20;;;;;;5048574;28;43068;-82
2023/06/28 07:55:19;;;;;;;;;;;28.10;51.40;;;;;;5049010;28;42951;-82
2023/06/28 07:57:44;;;;;;;;;;;28.10;51.40;;;;;;5050028;28;43003;-83
2023/06/28 08:00:10;;;;;;;;;;;28.10;51.30;;;;;;5049333;28;43705;-82
2023/06/28 08:02:36;;;;;;;;;;;28.00;50.10;;;;;;5049809;28;42936;-81
2023/06/28 08:05:01;;;;;;;;;;;28.00;50.00;;;;;;5047291;28;43596;-83
2023/06/28 08:07:27;;;;;;;;;;;27.90;49.90;;;;;;5028396;28;42972;-82
2023/06/28 08:09:53;;;;;;;;;;;27.80;50.40;;;;;;5046503;28;43071;-82
2023/06/28 08:12:18;;;;;;;;;;;27.90;51.10;;;;;;5046498;28;43035;-81
2023/06/28 08:14:44;;;;;;;;;;;27.90;50.20;;;;;;5045806;28;43650;-82
2023/06/28 08:17:09;;;;;;;;;;;27.90;50.20;;;;;;5046515;28;42773;-82
2023/06/28 08:19:38;;;;;;;;;;;27.90;49.50;;;;;;5045846;28;42915;-82
2023/06/28 08:22:04;;;;;;;;;;;28.00;49.00;;;;;;5045604;28;43024;-82
2023/06/28 08:24:29;;;;;;;;;;;27.90;47.60;;;;;;5045834;28;43613;-82
2023/06/28 08:26:55;;;;;;;;;;;27.20;46.80;;;;;;5046044;28;42979;-83
2023/06/28 08:29:21;;;;;;;;;;;27.70;47.50;;;;;;5045321;28;42935;-83
2023/06/28 08:31:46;;;;;;;;;;;27.70;48.70;;;;;;5045425;28;43291;-83
2023/06/28 08:34:12;;;;;;;;;;;27.80;48.90;;;;;;5045139;28;43051;-82
2023/06/28 08:36:39;;;;;;;;;;;27.80;48.40;;;;;;5046148;28;42916;-82
2023/06/28 08:39:04;;;;;;;;;;;27.80;48.30;;;;;;5045227;28;43352;-83
2023/06/28 08:41:30;;;;;;;;;;;27.80;48.00;;;;;;5045340;28;42811;-83
2023/06/28 08:43:59;;;;;;;;;;;27.90;47.60;;;;;;5043335;28;43255;-82
2023/06/28 08:46:26;;;;;;;;;;;27.80;47.70;;;;;;5044960;28;42869;-82
2023/06/28 08:48:52;;;;;;;;;;;27.90;48.40;;;;;;5026846;28;43771;-82
2023/06/28 08:51:18;;;;;;;;;;;27.90;48.60;;;;;;5045371;28;42881;-84
2023/06/28 08:53:47;;;;;;;;;;;28.00;48.20;;;;;;5045234;28;44166;-82
2023/06/28 08:56:13;;;;;;;;;;;28.10;48.30;;;;;;5045397;28;43043;-82
2023/06/28 08:58:41;;;;;;;;;;;28.10;48.20;;;;;;5025929;28;45410;-82
2023/06/28 09:01:08;;;;;;;;;;;28.10;48.10;;;;;;5045326;28;42909;-82
2023/06/28 09:03:39;;;;;;;;;;;28.20;48.60;;;;;;5045417;28;44071;-80
2023/06/28 09:06:05;;;;;;;;;;;28.20;48.00;;;;;;5045559;28;42976;-79
2023/06/28 09:08:31;;;;;;;;;;;28.10;47.90;;;;;;5043071;28;44013;-81
2023/06/28 09:10:59;;;;;;;;;;;28.20;48.40;;;;;;5045772;28;42932;-82
2023/06/28 09:13:25;;;;;;;;;;;28.30;48.50;;;;;;5045382;28;42855;-80
2023/06/28 09:15:50;;;;;;;;;;;28.30;48.00;;;;;;5045298;28;42893;-84
2023/06/28 09:18:16;;;;;;;;;;;28.30;48.10;;;;;;5039718;28;44768;-83
2023/06/28 09:20:48;;;;;;;;;;;28.20;48.30;;;;;;5042151;28;42962;-84
2023/06/28 09:23:21;;;;;;;;;;;28.20;48.10;;;;;;5043864;28;43460;-84
2023/06/28 09:25:49;;;;;;;;;;;28.10;46.80;;;;;;5026480;28;44135;-84
2023/06/28 09:28:15;;;;;;;;;;;28.00;46.60;;;;;;5044822;28;44494;-84
2023/06/28 09:30:40;;;;;;;;;;;27.60;46.30;;;;;;5044920;28;42992;-83
2023/06/28 09:33:06;;;;;;;;;;;28.00;46.80;;;;;;5044597;28;42928;-81
2023/06/28 09:35:31;;;;;;;;;;;27.90;45.80;;;;;;5045030;28;42995;-81
2023/06/28 09:38:04;;;;;;;;;;;27.90;45.80;;;;;;5026239;28;45227;-81
2023/06/28 09:40:34;;;;;;;;;;;27.90;46.10;;;;;;5044731;28;43063;-84
2023/06/28 09:42:59;;;;;;;;;;;27.90;46.10;;;;;;5044658;28;43004;-86
2023/06/28 09:45:26;;;;;;;;;;;28.00;45.80;;;;;;5026197;28;43079;-81
2023/06/28 09:47:56;;;;;;;;;;;28.00;46.00;;;;;;5044501;28;43325;-81
2023/06/28 09:50:25;;;;;;;;;;;27.90;46.30;;;;;;5044999;28;43004;-81
2023/06/28 09:52:51;;;;;;;;;;;28.00;46.90;;;;;;5045061;28;43186;-81
2023/06/28 09:55:17;;;;;;;;;;;28.00;46.20;;;;;;5043795;28;42955;-82
2023/06/28 09:57:42;;;;;;;;;;;28.00;46.20;;;;;;5025653;28;45550;-86
2023/06/28 10:00:09;;;;;;;;;;;28.00;45.50;;;;;;5044846;28;43035;-89
2023/06/28 10:02:35;;;;;;;;;;;28.00;45.60;;;;;;5043724;28;43048;-82
2023/06/28 10:05:02;;;;;;;;;;;30.70;47.60;;;;;;5044201;28;42913;-82
2023/06/28 10:07:28;;;;;;;;;;;28.00;45.70;;;;;;5044225;28;43038;-83
2023/06/28 10:09:54;;;;;;;;;;;28.00;46.00;;;;;;5044235;28;42992;-81
2023/06/28 10:12:20;;;;;;;;;;;28.00;45.80;;;;;;5044670;28;42878;-87
2023/06/28 10:14:53;;;;;;;;;;;28.00;44.10;;;;;;5043936;28;43055;-82
2023/06/28 10:17:19;;;;;;;;;;;28.00;44.30;;;;;;5043478;28;42929;-84
2023/06/28 10:19:45;;;;;;;;;;;27.90;43.70;;;;;;5042632;28;42919;-82
2023/06/28 10:22:11;;;;;;;;;;;27.80;43.60;;;;;;5037710;28;43024;-83
2023/06/28 10:24:38;;;;;;;;;;;27.80;43.40;;;;;;5040829;28;43069;-82
2023/06/28 10:27:04;;;;;;;;;;;27.70;43.90;;;;;;5041084;28;43292;-85
2023/06/28 10:29:30;;;;;;;;;;;27.80;44.40;;;;;;5040789;28;42930;-86
2023/06/28 10:31:56;;;;;;;;;;;27.80;44.60;;;;;;5040759;28;42990;-86
2023/06/28 10:34:21;;;;;;;;;;;27.80;44.50;;;;;;5032274;28;43068;-86
2023/06/28 10:36:47;;;;;;;;;;;27.80;44.50;;;;;;5035369;28;44434;-85
2023/06/28 10:39:12;;;;;;;;;;;27.80;44.60;;;;;;5043836;28;43130;-83
2023/06/28 10:41:38;;;;;;;;;;;27.90;45.40;;;;;;5043931;28;43562;-84
2023/06/28 10:44:04;;;;;;;;;;;27.90;44.80;;;;;;5043905;28;42963;-85
2023/06/28 10:46:30;;;;;;;;;;;27.90;45.30;;;;;;5033066;28;43497;-82
2023/06/28 10:48:59;;;;;;;;;;;27.70;43.90;;;;;;5049400;28;43190;-81
2023/06/28 10:51:31;;;;;;;;;;;27.70;44.40;;;;;;5032826;28;43054;-82
2023/06/28 10:54:10;;;;;;;;;;;27.60;44.10;;;;;;5042942;28;43940;-83
2023/06/28 10:56:37;;;;;;;;;;;27.60;45.00;;;;;;5043541;28;42870;-88
2023/06/28 10:59:04;;;;;;;;;;;27.60;44.10;;;;;;5037409;28;42940;-87
2023/06/28 11:01:31;;;;;;;;;;;27.60;44.00;;;;;;5043792;28;43611;-88
2023/06/28 11:04:10;;;;;;;;;;;27.60;43.90;;;;;;5043785;28;43037;-87
2023/06/28 11:06:37;;;;;;;;;;;27.60;44.10;;;;;;5043644;28;42936;-90
2023/06/28 11:09:14;;;;;;;;;;;27.60;44.30;;;;;;5043748;28;42985;-89
2023/06/28 11:11:44;;;;;;;;;;;27.70;44.30;;;;;;5043786;28;42884;-88
2023/06/28 11:14:18;;;;;;;;;;;27.70;44.40;;;;;;5034625;28;43033;-86
2023/06/28 11:16:46;;;;;;;;;;;27.70;44.00;;;;;;5043156;28;43363;-85
2023/06/28 11:19:15;;;;;;;;;;;27.70;44.50;;;;;;5043188;28;42998;-85
2023/06/28 11:21:40;;;;;;;;;;;27.70;44.00;;;;;;5042085;28;44143;-79
2023/06/28 11:24:06;;;;;;;;;;;27.60;44.10;;;;;;5043539;28;42970;-79
2023/06/28 11:26:33;;;;;;;;;;;27.60;44.00;;;;;;5043223;28;43487;-76
2023/06/28 11:28:59;;;;;;;;;;;27.70;44.80;;;;;;5042777;28;43091;-79
2023/06/28 11:31:36;;;;;;;;;;;27.80;45.10;;;;;;5042416;28;42929;-80
2023/06/28 11:34:02;;;;;;;;;;;27.90;44.40;;;;;;5042456;28;43184;-80
2023/06/28 11:36:27;;;;;;;;;;;27.90;43.80;;;;;;5043116;28;43546;-80
2023/06/28 11:38:53;;;;;;;;;;;27.90;43.90;;;;;;5042764;28;42872;-81
2023/06/28 11:41:19;;;;;;;;;;;27.80;43.90;;;;;;5044372;28;43400;-80
2023/06/28 11:43:45;;;;;;;;;;;27.90;44.60;;;;;;5046085;28;43021;-81
2023/06/28 11:46:17;;;;;;;;;;;27.90;44.40;;;;;;5046074;28;43379;-82
2023/06/28 11:48:43;;;;;;;;;;;27.90;43.90;;;;;;5041178;28;42958;-80
2023/06/28 11:51:09;;;;;;;;;;;27.90;43.90;;;;;;5045522;28;42906;-81
2023/06/28 11:53:34;;;;;;;;;;;27.90;44.50;;;;;;5045841;28;42944;-81
2023/06/28 11:56:00;;;;;;;;;;;28.00;44.30;;;;;;5044473;28;43673;-80
2023/06/28 11:58:35;;;;;;;;;;;27.90;44.50;;;;;;5045006;28;43191;-82
2023/06/28 12:01:01;;;;;;;;;;;27.90;44.90;;;;;;5027341;28;44935;-80
2023/06/28 12:03:30;;;;;;;;;;;27.90;44.70;;;;;;5046057;28;42995;-80
2023/06/28 12:06:00;;;;;;;;;;;27.90;44.70;;;;;;5044607;28;44836;-80
2023/06/28 12:08:31;;;;;;;;;;;27.90;44.00;;;;;;5045855;28;42979;-80
2023/06/28 12:11:00;;;;;;;;;;;27.90;44.40;;;;;;5021601;28;43390;-80
2023/06/28 12:13:25;;;;;;;;;;;27.90;44.30;;;;;;5042658;28;43101;-80
2023/06/28 12:15:52;;;;;;;;;;;27.90;43.70;;;;;;5045114;28;43015;-80
2023/06/28 12:18:36;;;;;;;;;;;28.00;43.90;;;;;;5027485;28;42981;-83
2023/06/28 12:21:17;;;;;;;;;;;28.00;42.70;;;;;;5037956;28;43415;-84
2023/06/28 12:23:43;;;;;;;;;;;27.90;42.90;;;;;;5044307;28;43105;-85
2023/06/28 12:26:10;;;;;;;;;;;27.80;42.80;;;;;;5044566;28;43983;-82
2023/06/28 12:28:36;;;;;;;;;;;27.90;42.80;;;;;;5045464;28;43301;-83
2023/06/28 12:31:01;;;;;;;;;;;27.80;43.10;;;;;;5046358;28;43698;-82
2023/06/28 12:33:27;;;;;;;;;;;27.80;43.10;;;;;;5045216;28;43386;-82
2023/06/28 12:35:55;;;;;;;;;;;27.80;43.10;;;;;;5045049;28;43433;-83
2023/06/28 12:38:23;;;;;;;;;;;27.80;43.50;;;;;;5045620;28;42927;-82
2023/06/28 12:40:48;;;;;;;;;;;27.70;42.30;;;;;;5045091;28;43537;-82
2023/06/28 12:43:15;;;;;;;;;;;27.60;42.20;;;;;;5032694;28;42968;-78
2023/06/28 12:45:45;;;;;;;;;;;27.60;42.00;;;;;;5034231;28;42946;-85
2023/06/28 12:48:11;;;;;;;;;;;27.70;42.90;;;;;;5033162;28;43021;-85
2023/06/28 12:50:36;;;;;;;;;;;27.70;41.70;;;;;;5017934;28;44385;-84
2023/06/28 12:53:02;;;;;;;;;;;27.70;42.30;;;;;;5036876;28;43047;-84
2023/06/28 12:55:27;;;;;;;;;;;27.60;42.60;;;;;;5034511;28;42959;-84
2023/06/28 12:57:53;;;;;;;;;;;27.60;41.70;;;;;;5036495;28;42968;-84
2023/06/28 13:00:18;;;;;;;;;;;27.60;41.90;;;;;;5034538;28;42967;-84
2023/06/28 13:02:44;;;;;;;;;;;27.60;42.10;;;;;;5035703;28;42988;-85
2023/06/28 13:05:09;;;;;;;;;;;27.60;42.20;;;;;;5045601;28;44078;-85
2023/06/28 13:07:35;;;;;;;;;;;27.60;42.70;;;;;;5045885;28;42871;-84
2023/06/28 13:10:01;;;;;;;;;;;27.60;42.00;;;;;;5045554;28;42827;-84
2023/06/28 13:12:26;;;;;;;;;;;27.60;42.00;;;;;;5042038;28;43035;-85
2023/06/28 13:14:52;;;;;;;;;;;27.60;42.40;;;;;;5032592;28;43339;-85
2023/06/28 13:17:17;;;;;;;;;;;27.70;42.70;;;;;;5043125;28;42944;-84
2023/06/28 13:19:43;;;;;;;;;;;27.70;42.40;;;;;;5043423;28;42914;-85
2023/06/28 13:22:08;;;;;;;;;;;27.60;42.80;;;;;;5036838;28;42941;-85
2023/06/28 13:24:34;;;;;;;;;;;27.70;42.20;;;;;;5035093;28;43954;-85
2023/06/28 13:26:59;;;;;;;;;;;27.70;41.80;;;;;;5035185;28;42934;-85
2023/06/28 13:29:25;;;;;;;;;;;27.70;42.70;;;;;;5033866;28;43003;-84
2023/06/28 13:31:50;;;;;;;;;;;27.70;42.50;;;;;;5036267;28;42713;-84
2023/06/28 13:34:16;;;;;;;;;;;27.70;42.70;;;;;;5035457;28;42826;-84
2023/06/28 13:36:43;;;;;;;;;;;27.70;41.90;;;;;;5034916;28;43251;-84
2023/06/28 13:39:09;;;;;;;;;;;27.70;42.60;;;;;;5035650;28;43664;-84
2023/06/28 13:41:34;;;;;;;;;;;27.70;42.70;;;;;;5034858;28;42928;-84
2023/06/28 13:44:00;;;;;;;;;;;27.70;42.90;;;;;;5038526;28;43469;-84
2023/06/28 13:46:25;;;;;;;;;;;27.80;42.90;;;;;;5041579;28;42927;-84
2023/06/28 13:48:51;;;;;;;;;;;27.80;42.00;;;;;;5033921;28;42954;-84
2023/06/28 13:51:16;;;;;;;;;;;27.70;42.80;;;;;;5035925;28;42891;-84
2023/06/28 13:53:42;;;;;;;;;;;27.60;42.70;;;;;;5036587;28;42964;-84
2023/06/28 13:56:08;;;;;;;;;;;27.70;43.60;;;;;;5034642;28;42989;-85
2023/06/28 13:58:33;;;;;;;;;;;27.70;43.10;;;;;;5017146;28;44469;-84
2023/06/28 14:00:59;;;;;;;;;;;27.70;43.40;;;;;;5035754;28;42862;-85
2023/06/28 14:03:25;;;;;;;;;;;27.60;43.90;;;;;;5032585;28;43115;-83
2023/06/28 14:05:51;;;;;;;;;;;27.60;43.70;;;;;;5035079;28;42937;-84
2023/06/28 14:08:17;;;;;;;;;;;27.60;44.10;;;;;;5034501;28;42921;-85
2023/06/28 14:10:42;;;;;;;;;;;27.40;43.60;;;;;;5033591;28;43007;-85